Tiger Lily — 3EUW3 — position and weather

sailwx.info

Track history (hours):
 
Tides and Currents Weather Stations Pressure Air Temp Water Temp Dewpoint Dewpoint Depression Visibility Wind Speed Wind Dir Waves Ship Positions

Tiger Lily

Last reported at 2017-Oct-10 11:59 UTC. Time now 2017-Oct-20 03:13 UTC.
Position S 27°50' E 153°60'.
Warning: this ship's position is 9 days out of date.

Length 229 m; draft 12.7 m.

Type: Cargo ship. MMSI: 372177000.

Date/timePositionNaut miles runAvg speedWind from/ knotsBaromVisibWave heightAir tempDewpointWater temp
2017-Oct-10 11:59S 27°50' E 153°60'611.8
2017-Oct-10 11:30S 27°56' E 153°59'611.5
2017-Oct-10 11:00S 28°02' E 153°58'611.5
2017-Oct-10 10:28S 28°08' E 153°57'511.5
2017-Oct-10 10:00S 28°13' E 153°57'611.5
2017-Oct-10 09:30S 28°19' E 153°56'611.5
2017-Oct-10 09:00S 28°25' E 153°55'611.3
2017-Oct-10 08:30S 28°30' E 153°54'611.0
2017-Oct-10 07:57S 28°36' E 153°53'710.6
2017-Oct-10 07:15S 28°43' E 153°52'1010.3
2017-Oct-10 06:20S 28°53' E 153°50'711.5
2017-Oct-10 05:43S 28°60' E 153°49'312.1
2017-Oct-10 05:30S 29°02' E 153°48'711.7
2017-Oct-10 04:56S 29°09' E 153°47'1712.1
2017-Oct-10 03:32S 29°25' E 153°44'312.6
2017-Oct-10 03:20S 29°28' E 153°43'18311.3
2017-Oct-09 11:06S 32°24' E 152°43'1 9.7
2017-Oct-09 11:01S 32°25' E 152°43'5 9.8
2017-Oct-09 10:31S 32°29' E 152°40'510.0
2017-Oct-09 10:00S 32°33' E 152°36'510.7
2017-Oct-09 09:31S 32°36' E 152°32'510.9
2017-Oct-09 09:00S 32°40' E 152°27'510.7
2017-Oct-09 08:31S 32°43' E 152°22'511.0
2017-Oct-09 08:00S 32°47' E 152°17'510.9
2017-Oct-09 07:30S 32°50' E 152°12'611.5
2017-Oct-09 07:01S 32°52' E 152°05'611.5
2017-Oct-09 06:31S 32°54' E 151°59'611.4
2017-Oct-09 06:01S 32°56' E 151°53'4 7.1
2017-Oct-09 05:30S 32°55' E 151°49'2 3.9
2017-Oct-09 05:00S 32°54' E 151°46'1 2.4
2017-Oct-09 04:31S 32°53' E 151°46'0 0.0
2017-Oct-09 04:01S 32°53' E 151°46'0 0.0
2017-Oct-09 03:31S 32°53' E 151°46'0 0.0
2017-Oct-09 03:01S 32°53' E 151°46'0 0.0
2017-Oct-09 02:30S 32°53' E 151°46'0 0.0
2017-Oct-09 02:00S 32°53' E 151°46'0 0.0
2017-Oct-09 01:30S 32°53' E 151°46'0 0.0
2017-Oct-09 01:01S 32°53' E 151°46'0 0.0
2017-Oct-09 00:30S 32°53' E 151°46'0 0.0
2017-Oct-09 00:01S 32°53' E 151°46'0 0.0
2017-Oct-08 23:30S 32°53' E 151°46'0 0.0
2017-Oct-08 23:01S 32°53' E 151°46'0 0.0
2017-Oct-08 22:31S 32°53' E 151°46'0 0.0
2017-Oct-08 22:00S 32°53' E 151°46'0 0.0
2017-Oct-08 21:31S 32°53' E 151°46'0 0.0
2017-Oct-08 21:01S 32°53' E 151°46'0 0.0
2017-Oct-08 20:30S 32°53' E 151°46'0 0.0
2017-Oct-08 19:57S 32°53' E 151°46'0 0.0
2017-Oct-08 19:31S 32°53' E 151°46'0 0.0
2017-Oct-08 18:59S 32°53' E 151°46'0 0.0
2017-Oct-08 18:30S 32°53' E 151°46'0 0.0
2017-Oct-08 18:01S 32°53' E 151°46'0 0.0
2017-Oct-08 17:30S 32°53' E 151°46'0 0.0
2017-Oct-08 17:00S 32°53' E 151°46'0 0.0
2017-Oct-08 16:31S 32°53' E 151°46'0 0.0
2017-Oct-08 16:00S 32°53' E 151°46'0 0.0
2017-Oct-08 15:31S 32°53' E 151°46'0 0.0
2017-Oct-08 15:00S 32°53' E 151°46'0 0.0
2017-Oct-08 14:30S 32°53' E 151°46'0 0.0
2017-Oct-08 14:00S 32°53' E 151°46'0 0.0
2017-Oct-08 13:31S 32°53' E 151°46'0 0.0
2017-Oct-08 13:00S 32°53' E 151°46'0 0.0
2017-Oct-08 12:31S 32°53' E 151°46'0 0.0
2017-Oct-08 12:01S 32°53' E 151°46'0 0.0
2017-Oct-08 11:30S 32°53' E 151°46'0 0.0
2017-Oct-08 11:01S 32°53' E 151°46'0 0.0
2017-Oct-08 10:31S 32°53' E 151°46'0 0.0
2017-Oct-08 10:01S 32°53' E 151°46'0 0.0
2017-Oct-08 09:31S 32°53' E 151°46'1 2.6
2017-Oct-08 09:01S 32°55' E 151°46'3 6.9
2017-Oct-08 08:31S 32°55' E 151°50'5 9.9
2017-Oct-08 08:00S 32°60' E 151°53'4 8.3
2017-Oct-08 07:30S 33°03' E 151°55'3 5.7
2017-Oct-08 07:00S 33°04' E 151°58'1 1.2
2017-Oct-08 06:31S 33°04' E 151°59'4 7.4
2017-Oct-08 06:00S 33°00' E 151°58'611.2
2017-Oct-08 05:31S 32°55' E 151°59'713.1
2017-Oct-08 05:01S 32°52' E 152°06'3 5.6
2017-Oct-08 04:30S 32°51' E 152°09'3 6.6
2017-Oct-08 04:01S 32°49' E 152°13'612.3
2017-Oct-08 03:30S 32°46' E 152°19'612.6
2017-Oct-08 03:00S 32°41' E 152°24'713.1
2017-Oct-08 02:31S 32°37' E 152°30'714.2
2017-Oct-08 02:01S 32°32' E 152°36'713.9
2017-Oct-08 01:31S 32°27' E 152°42'23513.5
2017-Oct-07 08:04S 28°40' E 153°53'115.1
2017-Oct-07 07:58S 28°38' E 153°53'715.0
2017-Oct-07 07:30S 28°31' E 153°54'715.0
2017-Oct-07 07:00S 28°24' E 153°55'814.9
2017-Oct-07 06:30S 28°17' E 153°56'815.5
2017-Oct-07 06:00S 28°09' E 153°57'815.8
2017-Oct-07 05:30S 28°01' E 153°58'814.7
2017-Oct-07 04:59S 27°54' E 153°60'714.3
2017-Oct-07 04:30S 27°47' E 154°01'  
Track history (hours):
 
Tides and Currents Weather Stations Pressure Air Temp Water Temp Dewpoint Dewpoint Depression Visibility Wind Speed Wind Dir Waves Ship Positions

Tiger Lily

Last reported at 2017-Oct-10 11:59 UTC. Time now 2017-Oct-20 03:13 UTC.
Position S 27°50' E 153°60'.
Warning: this ship's position is 9 days out of date.

Length 229 m; draft 12.7 m.

Type: Cargo ship. MMSI: 372177000.

Date/timePositionNaut miles runAvg speedWind from/ knotsBaromVisibWave heightAir tempDewpointWater temp
2017-Oct-10 11:59S 27°50' E 153°60'611.8
2017-Oct-10 11:30S 27°56' E 153°59'611.5
2017-Oct-10 11:00S 28°02' E 153°58'611.5
2017-Oct-10 10:28S 28°08' E 153°57'511.5
2017-Oct-10 10:00S 28°13' E 153°57'611.5
2017-Oct-10 09:30S 28°19' E 153°56'611.5
2017-Oct-10 09:00S 28°25' E 153°55'611.3
2017-Oct-10 08:30S 28°30' E 153°54'611.0
2017-Oct-10 07:57S 28°36' E 153°53'710.6
2017-Oct-10 07:15S 28°43' E 153°52'1010.3
2017-Oct-10 06:20S 28°53' E 153°50'711.5
2017-Oct-10 05:43S 28°60' E 153°49'312.1
2017-Oct-10 05:30S 29°02' E 153°48'711.7
2017-Oct-10 04:56S 29°09' E 153°47'1712.1
2017-Oct-10 03:32S 29°25' E 153°44'312.6
2017-Oct-10 03:20S 29°28' E 153°43'18311.3
2017-Oct-09 11:06S 32°24' E 152°43'1 9.7
2017-Oct-09 11:01S 32°25' E 152°43'5 9.8
2017-Oct-09 10:31S 32°29' E 152°40'510.0
2017-Oct-09 10:00S 32°33' E 152°36'510.7
2017-Oct-09 09:31S 32°36' E 152°32'510.9
2017-Oct-09 09:00S 32°40' E 152°27'510.7
2017-Oct-09 08:31S 32°43' E 152°22'511.0
2017-Oct-09 08:00S 32°47' E 152°17'510.9
2017-Oct-09 07:30S 32°50' E 152°12'611.5
2017-Oct-09 07:01S 32°52' E 152°05'611.5
2017-Oct-09 06:31S 32°54' E 151°59'611.4
2017-Oct-09 06:01S 32°56' E 151°53'4 7.1
2017-Oct-09 05:30S 32°55' E 151°49'2 3.9
2017-Oct-09 05:00S 32°54' E 151°46'1 2.4
2017-Oct-09 04:31S 32°53' E 151°46'0 0.0
2017-Oct-09 04:01S 32°53' E 151°46'0 0.0
2017-Oct-09 03:31S 32°53' E 151°46'0 0.0
2017-Oct-09 03:01S 32°53' E 151°46'0 0.0
2017-Oct-09 02:30S 32°53' E 151°46'0 0.0
2017-Oct-09 02:00S 32°53' E 151°46'0 0.0
2017-Oct-09 01:30S 32°53' E 151°46'0 0.0
2017-Oct-09 01:01S 32°53' E 151°46'0 0.0
2017-Oct-09 00:30S 32°53' E 151°46'0 0.0
2017-Oct-09 00:01S 32°53' E 151°46'0 0.0
2017-Oct-08 23:30S 32°53' E 151°46'0 0.0
2017-Oct-08 23:01S 32°53' E 151°46'0 0.0
2017-Oct-08 22:31S 32°53' E 151°46'0 0.0
2017-Oct-08 22:00S 32°53' E 151°46'0 0.0
2017-Oct-08 21:31S 32°53' E 151°46'0 0.0
2017-Oct-08 21:01S 32°53' E 151°46'0 0.0
2017-Oct-08 20:30S 32°53' E 151°46'0 0.0
2017-Oct-08 19:57S 32°53' E 151°46'0 0.0
2017-Oct-08 19:31S 32°53' E 151°46'0 0.0
2017-Oct-08 18:59S 32°53' E 151°46'0 0.0
2017-Oct-08 18:30S 32°53' E 151°46'0 0.0
2017-Oct-08 18:01S 32°53' E 151°46'0 0.0
2017-Oct-08 17:30S 32°53' E 151°46'0 0.0
2017-Oct-08 17:00S 32°53' E 151°46'0 0.0
2017-Oct-08 16:31S 32°53' E 151°46'0 0.0
2017-Oct-08 16:00S 32°53' E 151°46'0 0.0
2017-Oct-08 15:31S 32°53' E 151°46'0 0.0
2017-Oct-08 15:00S 32°53' E 151°46'0 0.0
2017-Oct-08 14:30S 32°53' E 151°46'0 0.0
2017-Oct-08 14:00S 32°53' E 151°46'0 0.0
2017-Oct-08 13:31S 32°53' E 151°46'0 0.0
2017-Oct-08 13:00S 32°53' E 151°46'0 0.0
2017-Oct-08 12:31S 32°53' E 151°46'0 0.0
2017-Oct-08 12:01S 32°53' E 151°46'0 0.0
2017-Oct-08 11:30S 32°53' E 151°46'0 0.0
2017-Oct-08 11:01S 32°53' E 151°46'0 0.0
2017-Oct-08 10:31S 32°53' E 151°46'0 0.0
2017-Oct-08 10:01S 32°53' E 151°46'0 0.0
2017-Oct-08 09:31S 32°53' E 151°46'1 2.6
2017-Oct-08 09:01S 32°55' E 151°46'3 6.9
2017-Oct-08 08:31S 32°55' E 151°50'5 9.9
2017-Oct-08 08:00S 32°60' E 151°53'4 8.3
2017-Oct-08 07:30S 33°03' E 151°55'3 5.7
2017-Oct-08 07:00S 33°04' E 151°58'1 1.2
2017-Oct-08 06:31S 33°04' E 151°59'4 7.4
2017-Oct-08 06:00S 33°00' E 151°58'611.2
2017-Oct-08 05:31S 32°55' E 151°59'713.1
2017-Oct-08 05:01S 32°52' E 152°06'3 5.6
2017-Oct-08 04:30S 32°51' E 152°09'3 6.6
2017-Oct-08 04:01S 32°49' E 152°13'612.3
2017-Oct-08 03:30S 32°46' E 152°19'612.6
2017-Oct-08 03:00S 32°41' E 152°24'713.1
2017-Oct-08 02:31S 32°37' E 152°30'714.2
2017-Oct-08 02:01S 32°32' E 152°36'713.9
2017-Oct-08 01:31S 32°27' E 152°42'23513.5
2017-Oct-07 08:04S 28°40' E 153°53'115.1
2017-Oct-07 07:58S 28°38' E 153°53'715.0
2017-Oct-07 07:30S 28°31' E 153°54'715.0
2017-Oct-07 07:00S 28°24' E 153°55'814.9
2017-Oct-07 06:30S 28°17' E 153°56'815.5
2017-Oct-07 06:00S 28°09' E 153°57'815.8
2017-Oct-07 05:30S 28°01' E 153°58'814.7
2017-Oct-07 04:59S 27°54' E 153°60'714.3
2017-Oct-07 04:30S 27°47' E 154°01'  

Dump ship's entire track history